Time;durP1;ratioP1;P1;durP2;ratioP2;P2;SDS_P1;SDS_P2;PMS_P1;PMS_P2;Temp;Humidity;BMP_temperature;BMP_pressure;BME280_temperature;BME280_humidity;BME280_pressure;Samples;Min_cycle;Max_cycle;Signal;HPM_P1;HPM_P2
2021/07/10 00:01:02;;;;;;;5.10;2.40;;;;;;;;;;5016631;28;20049;-57
2021/07/10 00:03:28;;;;;;;5.90;2.78;;;;;;;;;;5016400;28;20041;-57
2021/07/10 00:05:54;;;;;;;4.40;2.40;;;;;;;;;;5014983;28;20030;-57
2021/07/10 00:08:20;;;;;;;5.53;2.65;;;;;;;;;;5026741;28;20122;-59
2021/07/10 00:10:46;;;;;;;5.15;2.63;;;;;;;;;;5015915;28;21868;-55
2021/07/10 00:13:12;;;;;;;8.05;2.83;;;;;;;;;;5013214;28;20130;-57
2021/07/10 00:15:37;;;;;;;4.55;2.60;;;;;;;;;;5014517;28;20597;-57
2021/07/10 00:18:04;;;;;;;16.10;2.83;;;;;;;;;;5014735;28;20494;-57
2021/07/10 00:20:30;;;;;;;9.45;2.95;;;;;;;;;;5012727;28;20614;-57
2021/07/10 00:22:56;;;;;;;4.60;2.50;;;;;;;;;;5014211;28;20174;-57
2021/07/10 00:25:21;;;;;;;5.72;2.75;;;;;;;;;;5014108;28;20133;-57
2021/07/10 00:27:48;;;;;;;5.25;2.33;;;;;;;;;;5014309;28;20532;-57
2021/07/10 00:30:16;;;;;;;7.90;3.17;;;;;;;;;;5015651;28;20045;-57
2021/07/10 00:32:41;;;;;;;5.65;3.05;;;;;;;;;;5013086;28;20041;-57
2021/07/10 00:35:08;;;;;;;5.00;2.63;;;;;;;;;;5014258;28;20533;-57
2021/07/10 00:37:34;;;;;;;6.82;2.78;;;;;;;;;;5013745;28;20447;-57
2021/07/10 00:39:59;;;;;;;6.88;2.90;;;;;;;;;;5012353;28;20076;-56
2021/07/10 00:42:25;;;;;;;4.65;2.38;;;;;;;;;;5025254;28;20133;-56
2021/07/10 00:44:51;;;;;;;5.25;2.60;;;;;;;;;;5011294;28;20045;-57
2021/07/10 00:47:18;;;;;;;4.50;2.40;;;;;;;;;;5013224;28;20064;-56
2021/07/10 00:49:44;;;;;;;9.38;3.05;;;;;;;;;;5007080;28;20042;-57
2021/07/10 00:52:10;;;;;;;4.72;2.53;;;;;;;;;;5012848;28;20052;-56
2021/07/10 00:54:36;;;;;;;6.10;2.55;;;;;;;;;;5009579;28;20078;-56
2021/07/10 00:57:02;;;;;;;8.07;3.08;;;;;;;;;;5016988;28;20140;-57
2021/07/10 00:59:29;;;;;;;4.60;2.65;;;;;;;;;;5013505;28;20127;-55
2021/07/10 01:01:55;;;;;;;5.50;3.00;;;;;;;;;;5012527;28;21632;-56
2021/07/10 01:04:21;;;;;;;5.22;2.40;;;;;;;;;;5011000;28;20060;-56
2021/07/10 01:06:47;;;;;;;5.57;3.03;;;;;;;;;;5012647;28;20046;-56
2021/07/10 01:09:14;;;;;;;5.28;2.47;;;;;;;;;;5011276;28;20050;-57
2021/07/10 01:11:40;;;;;;;10.63;3.17;;;;;;;;;;5009509;28;20042;-54
2021/07/10 01:14:06;;;;;;;6.07;3.00;;;;;;;;;;5010294;28;20114;-57
2021/07/10 01:16:32;;;;;;;5.32;2.63;;;;;;;;;;5011938;28;20175;-57
2021/07/10 01:18:58;;;;;;;7.30;3.20;;;;;;;;;;5013096;28;20051;-56
2021/07/10 01:21:23;;;;;;;5.30;2.42;;;;;;;;;;5011968;28;20148;-57
2021/07/10 01:23:50;;;;;;;8.90;3.00;;;;;;;;;;5012029;28;20041;-58
2021/07/10 01:26:17;;;;;;;5.55;2.63;;;;;;;;;;5009131;28;20052;-56
2021/07/10 01:28:46;;;;;;;5.57;2.85;;;;;;;;;;5010372;28;20045;-56
2021/07/10 01:31:12;;;;;;;7.28;3.08;;;;;;;;;;5012037;28;20045;-56
2021/07/10 01:33:38;;;;;;;5.65;3.00;;;;;;;;;;5010720;28;20081;-56
2021/07/10 01:36:04;;;;;;;6.22;2.88;;;;;;;;;;5012914;28;20033;-57
2021/07/10 01:38:30;;;;;;;5.57;3.17;;;;;;;;;;5011865;28;20049;-55
2021/07/10 01:40:56;;;;;;;9.00;3.15;;;;;;;;;;5013855;28;20053;-57
2021/07/10 01:43:22;;;;;;;5.85;2.97;;;;;;;;;;5008113;28;20514;-56
2021/07/10 01:45:48;;;;;;;6.38;2.88;;;;;;;;;;5014162;28;20052;-57
2021/07/10 01:48:14;;;;;;;8.82;3.10;;;;;;;;;;5013011;28;20072;-56
2021/07/10 01:50:41;;;;;;;6.72;2.90;;;;;;;;;;5014929;28;20126;-57
2021/07/10 01:53:06;;;;;;;6.15;3.17;;;;;;;;;;5014176;28;20410;-58
2021/07/10 01:55:32;;;;;;;8.50;2.88;;;;;;;;;;5012698;28;20057;-56
2021/07/10 01:57:59;;;;;;;6.72;2.78;;;;;;;;;;5014426;28;20100;-56
2021/07/10 02:00:27;;;;;;;6.85;2.83;;;;;;;;;;5014452;28;20961;-57
2021/07/10 02:02:54;;;;;;;10.48;3.42;;;;;;;;;;5014844;28;20033;-56
2021/07/10 02:05:21;;;;;;;4.90;2.83;;;;;;;;;;5012167;28;20064;-58
2021/07/10 02:07:48;;;;;;;6.25;2.70;;;;;;;;;;5016401;28;20053;-56
2021/07/10 02:10:15;;;;;;;8.95;2.45;;;;;;;;;;5014653;28;20037;-57
2021/07/10 02:12:42;;;;;;;4.85;2.50;;;;;;;;;;5013018;28;20045;-56
2021/07/10 02:15:08;;;;;;;10.63;2.75;;;;;;;;;;5013263;28;20047;-55
2021/07/10 02:17:34;;;;;;;5.03;2.55;;;;;;;;;;5013315;28;20125;-57
2021/07/10 02:20:00;;;;;;;5.07;2.45;;;;;;;;;;5015684;28;20045;-57
2021/07/10 02:22:25;;;;;;;5.88;2.63;;;;;;;;;;5013127;28;20159;-57
2021/07/10 02:24:51;;;;;;;6.50;2.67;;;;;;;;;;5013678;28;20110;-57
2021/07/10 02:27:19;;;;;;;5.95;2.80;;;;;;;;;;5016303;28;20065;-56
2021/07/10 02:29:45;;;;;;;5.75;2.80;;;;;;;;;;5013747;28;20048;-57
2021/07/10 02:32:11;;;;;;;5.13;2.80;;;;;;;;;;5015470;28;20045;-57
2021/07/10 02:34:37;;;;;;;7.82;2.67;;;;;;;;;;5015218;28;20150;-56
2021/07/10 02:37:02;;;;;;;7.18;2.63;;;;;;;;;;5015461;28;20049;-55
2021/07/10 02:39:28;;;;;;;4.85;2.38;;;;;;;;;;5015798;28;20160;-53
2021/07/10 02:41:54;;;;;;;7.50;2.60;;;;;;;;;;4945951;28;2018265;-57
2021/07/10 02:44:20;;;;;;;6.18;2.35;;;;;;;;;;5014988;28;20056;-57
2021/07/10 02:46:46;;;;;;;5.65;2.53;;;;;;;;;;5007529;28;20041;-58
2021/07/10 02:49:12;;;;;;;5.03;2.50;;;;;;;;;;5015966;28;20057;-57
2021/07/10 02:51:38;;;;;;;6.40;3.03;;;;;;;;;;5014690;28;20057;-57
2021/07/10 02:54:04;;;;;;;6.75;2.92;;;;;;;;;;5014620;28;20037;-58
2021/07/10 02:56:30;;;;;;;4.97;2.38;;;;;;;;;;5014079;28;20060;-57
2021/07/10 02:58:55;;;;;;;5.00;2.42;;;;;;;;;;5015252;28;20157;-55
2021/07/10 03:01:21;;;;;;;4.88;2.40;;;;;;;;;;5013517;28;21769;-57
2021/07/10 03:03:47;;;;;;;5.60;2.65;;;;;;;;;;5013194;28;20072;-58
2021/07/10 03:06:14;;;;;;;5.05;2.65;;;;;;;;;;5014865;28;20041;-57
2021/07/10 03:08:40;;;;;;;5.60;2.80;;;;;;;;;;5014537;28;20403;-58
2021/07/10 03:11:06;;;;;;;7.55;3.08;;;;;;;;;;5013560;28;20042;-58
2021/07/10 03:13:32;;;;;;;5.68;2.53;;;;;;;;;;5013420;28;20096;-57
2021/07/10 03:15:58;;;;;;;5.60;2.92;;;;;;;;;;5013277;28;20050;-57
2021/07/10 03:18:23;;;;;;;5.18;2.60;;;;;;;;;;5012945;28;20034;-58
2021/07/10 03:20:49;;;;;;;12.32;2.90;;;;;;;;;;5015401;28;20128;-57
2021/07/10 03:23:15;;;;;;;5.35;2.65;;;;;;;;;;5029827;28;20037;-57
2021/07/10 03:25:43;;;;;;;5.25;2.60;;;;;;;;;;5013133;28;20092;-58
2021/07/10 03:28:09;;;;;;;11.40;3.15;;;;;;;;;;5012818;28;20050;-57
2021/07/10 03:30:35;;;;;;;5.13;2.53;;;;;;;;;;5013374;28;20103;-57
2021/07/10 03:33:01;;;;;;;8.52;2.72;;;;;;;;;;5009187;28;20252;-57
2021/07/10 03:35:27;;;;;;;10.18;2.75;;;;;;;;;;5014864;28;20069;-57
2021/07/10 03:37:53;;;;;;;5.93;2.95;;;;;;;;;;5013190;28;20403;-58
2021/07/10 03:40:22;;;;;;;10.02;2.50;;;;;;;;;;5011565;28;20049;-57
2021/07/10 03:42:48;;;;;;;6.95;3.17;;;;;;;;;;5013491;28;20511;-57
2021/07/10 03:45:14;;;;;;;5.72;2.80;;;;;;;;;;5012835;28;20124;-57
2021/07/10 03:47:40;;;;;;;5.88;2.50;;;;;;;;;;5012402;28;21110;-56
2021/07/10 03:50:07;;;;;;;4.60;2.40;;;;;;;;;;5014449;28;20118;-56
2021/07/10 03:52:33;;;;;;;7.75;2.67;;;;;;;;;;5028109;28;20040;-57
2021/07/10 03:55:01;;;;;;;7.05;2.95;;;;;;;;;;5013927;28;20767;-56
2021/07/10 03:57:29;;;;;;;4.57;2.67;;;;;;;;;;5012088;28;20068;-55
2021/07/10 03:59:55;;;;;;;6.50;2.83;;;;;;;;;;5014566;28;20041;-57
2021/07/10 04:02:21;;;;;;;6.95;2.92;;;;;;;;;;5013461;28;20037;-57
2021/07/10 04:04:47;;;;;;;5.72;2.65;;;;;;;;;;5012327;28;20045;-56
2021/07/10 04:07:12;;;;;;;5.63;3.17;;;;;;;;;;5009971;28;20049;-57
2021/07/10 04:09:38;;;;;;;6.57;3.05;;;;;;;;;;5010529;28;20051;-57
2021/07/10 04:12:04;;;;;;;5.00;2.72;;;;;;;;;;5012137;28;20037;-58
2021/07/10 04:14:31;;;;;;;5.82;3.40;;;;;;;;;;5012847;28;20046;-58
2021/07/10 04:16:58;;;;;;;5.78;3.33;;;;;;;;;;5029409;28;21185;-58
2021/07/10 04:19:23;;;;;;;5.50;3.33;;;;;;;;;;5011144;28;20037;-58
2021/07/10 04:21:49;;;;;;;6.97;3.30;;;;;;;;;;5012629;28;20048;-58
2021/07/10 04:24:16;;;;;;;5.43;2.85;;;;;;;;;;5013157;28;20041;-57
2021/07/10 04:26:42;;;;;;;6.38;3.13;;;;;;;;;;5011032;28;20179;-57
2021/07/10 04:29:07;;;;;;;7.35;2.90;;;;;;;;;;5009926;28;20874;-58
2021/07/10 04:31:33;;;;;;;6.05;3.25;;;;;;;;;;5010698;28;20045;-58
2021/07/10 04:33:59;;;;;;;8.23;2.78;;;;;;;;;;5013849;28;20154;-58
2021/07/10 04:36:25;;;;;;;6.95;3.30;;;;;;;;;;5009722;28;20029;-59
2021/07/10 04:38:51;;;;;;;6.93;3.17;;;;;;;;;;5010835;28;20048;-58
2021/07/10 04:41:17;;;;;;;9.68;4.97;;;;;;;;;;5013294;28;20597;-57
2021/07/10 04:43:42;;;;;;;8.50;4.43;;;;;;;;;;5011050;28;21035;-58
2021/07/10 04:46:09;;;;;;;8.27;4.05;;;;;;;;;;5013588;28;20034;-58
2021/07/10 04:48:35;;;;;;;9.60;4.13;;;;;;;;;;5008478;28;20112;-57
2021/07/10 04:51:00;;;;;;;7.50;3.97;;;;;;;;;;5013086;28;20079;-59
2021/07/10 04:53:26;;;;;;;8.40;4.57;;;;;;;;;;5008431;28;20037;-58
2021/07/10 04:55:52;;;;;;;12.30;5.30;;;;;;;;;;5013713;28;20064;-56
2021/07/10 04:58:18;;;;;;;9.15;5.40;;;;;;;;;;5011031;28;20045;-57
2021/07/10 05:00:44;;;;;;;10.07;4.78;;;;;;;;;;5013455;28;20045;-58
2021/07/10 05:03:11;;;;;;;10.32;4.18;;;;;;;;;;5012366;28;20033;-57
2021/07/10 05:05:37;;;;;;;8.88;4.55;;;;;;;;;;5012521;28;20061;-58
2021/07/10 05:08:02;;;;;;;7.25;4.45;;;;;;;;;;5012276;28;20173;-58
2021/07/10 05:10:28;;;;;;;10.63;4.85;;;;;;;;;;5027025;28;20041;-58
2021/07/10 05:12:54;;;;;;;8.20;4.20;;;;;;;;;;5016100;28;20049;-58
2021/07/10 05:15:20;;;;;;;8.98;4.32;;;;;;;;;;5014196;28;20105;-56
2021/07/10 05:17:46;;;;;;;8.35;4.10;;;;;;;;;;5013183;28;20042;-58
2021/07/10 05:20:12;;;;;;;7.50;4.13;;;;;;;;;;5015353;28;20052;-57
2021/07/10 05:22:38;;;;;;;8.57;4.68;;;;;;;;;;5014742;28;20045;-57
2021/07/10 05:25:04;;;;;;;7.85;4.10;;;;;;;;;;5012212;28;20049;-56
2021/07/10 05:27:30;;;;;;;6.95;3.95;;;;;;;;;;5010297;28;20069;-57
2021/07/10 05:29:56;;;;;;;11.63;4.25;;;;;;;;;;5012196;28;20535;-57
2021/07/10 05:32:22;;;;;;;7.32;3.88;;;;;;;;;;5009728;28;20037;-57
2021/07/10 05:34:48;;;;;;;8.20;4.03;;;;;;;;;;5011105;28;20041;-56
2021/07/10 05:37:14;;;;;;;7.18;3.75;;;;;;;;;;5012197;28;20038;-57
2021/07/10 05:39:42;;;;;;;8.65;4.07;;;;;;;;;;5011122;28;20060;-58
2021/07/10 05:42:09;;;;;;;9.57;3.88;;;;;;;;;;5013745;28;20038;-57
2021/07/10 05:44:34;;;;;;;6.95;3.78;;;;;;;;;;5013533;28;20050;-55
2021/07/10 05:47:00;;;;;;;6.47;3.70;;;;;;;;;;5014432;28;20133;-57
2021/07/10 05:49:26;;;;;;;7.43;3.90;;;;;;;;;;5011532;28;20052;-57
2021/07/10 05:51:52;;;;;;;10.70;3.67;;;;;;;;;;5010278;28;20135;-57
2021/07/10 05:54:18;;;;;;;6.95;3.60;;;;;;;;;;5009988;28;20061;-55
2021/07/10 05:56:44;;;;;;;7.05;3.47;;;;;;;;;;5009236;28;20057;-57
2021/07/10 05:59:09;;;;;;;10.82;4.97;;;;;;;;;;5011687;28;20120;-56
2021/07/10 06:01:35;;;;;;;8.05;4.20;;;;;;;;;;5011202;28;20042;-56
2021/07/10 06:04:01;;;;;;;7.78;4.22;;;;;;;;;;5009802;28;20186;-54
2021/07/10 06:06:27;;;;;;;9.18;4.22;;;;;;;;;;5010183;28;20460;-57
2021/07/10 06:08:53;;;;;;;9.40;4.63;;;;;;;;;;5011601;28;20053;-57
2021/07/10 06:11:19;;;;;;;8.65;4.40;;;;;;;;;;5010250;28;20044;-54
2021/07/10 06:13:46;;;;;;;9.88;4.88;;;;;;;;;;5011168;28;20505;-56
2021/07/10 06:16:12;;;;;;;7.88;4.22;;;;;;;;;;5012640;28;20116;-57
2021/07/10 06:18:38;;;;;;;8.18;4.30;;;;;;;;;;5009990;28;20109;-56
2021/07/10 06:21:04;;;;;;;10.48;4.80;;;;;;;;;;5012337;28;20038;-55
2021/07/10 06:23:30;;;;;;;11.35;4.88;;;;;;;;;;5010872;28;20033;-57
2021/07/10 06:25:56;;;;;;;8.50;4.68;;;;;;;;;;5012541;28;20037;-57
2021/07/10 06:28:22;;;;;;;8.73;4.72;;;;;;;;;;5009873;28;20060;-57
2021/07/10 06:30:48;;;;;;;9.43;5.20;;;;;;;;;;5012220;28;20063;-57
2021/07/10 06:33:14;;;;;;;9.93;5.05;;;;;;;;;;5014320;28;20030;-57
2021/07/10 06:35:40;;;;;;;8.00;4.35;;;;;;;;;;5013598;28;20041;-57
2021/07/10 06:38:06;;;;;;;13.52;5.45;;;;;;;;;;5015933;28;20052;-56
2021/07/10 06:40:32;;;;;;;12.23;4.80;;;;;;;;;;5014256;28;20537;-56
2021/07/10 06:42:57;;;;;;;9.32;4.78;;;;;;;;;;5015878;28;20127;-57
2021/07/10 06:45:23;;;;;;;7.72;4.32;;;;;;;;;;5014364;28;20080;-57
2021/07/10 06:47:49;;;;;;;8.15;4.47;;;;;;;;;;5013819;28;20506;-56
2021/07/10 06:50:17;;;;;;;8.60;4.18;;;;;;;;;;5016343;28;20037;-55
2021/07/10 06:52:43;;;;;;;15.07;3.90;;;;;;;;;;5016716;28;20061;-57
2021/07/10 06:55:10;;;;;;;7.80;4.07;;;;;;;;;;5017995;28;20132;-56
2021/07/10 06:57:35;;;;;;;7.28;3.95;;;;;;;;;;5015340;28;20060;-55
2021/07/10 07:00:02;;;;;;;10.73;4.32;;;;;;;;;;5013727;28;20156;-54
2021/07/10 07:02:28;;;;;;;8.30;3.70;;;;;;;;;;5013356;28;20092;-56
2021/07/10 07:04:54;;;;;;;10.45;4.10;;;;;;;;;;5013155;28;20045;-55
2021/07/10 07:07:20;;;;;;;6.53;3.50;;;;;;;;;;5012825;28;20048;-57
2021/07/10 07:09:46;;;;;;;9.27;4.00;;;;;;;;;;5012695;28;20038;-55
2021/07/10 07:12:11;;;;;;;9.05;4.05;;;;;;;;;;5013512;28;20037;-57
2021/07/10 07:14:37;;;;;;;8.00;3.70;;;;;;;;;;5012824;28;20045;-56
2021/07/10 07:17:03;;;;;;;9.70;3.65;;;;;;;;;;5016535;28;20061;-57
2021/07/10 07:19:32;;;;;;;7.97;3.65;;;;;;;;;;5027867;28;20048;-56
2021/07/10 07:21:58;;;;;;;7.20;3.70;;;;;;;;;;5013235;28;20061;-57
2021/07/10 07:24:24;;;;;;;8.63;3.85;;;;;;;;;;5012522;28;20525;-57
2021/07/10 07:26:50;;;;;;;9.38;3.70;;;;;;;;;;5013174;28;20033;-56
2021/07/10 07:29:16;;;;;;;8.25;3.72;;;;;;;;;;5010502;28;20469;-57
2021/07/10 07:31:43;;;;;;;6.15;3.50;;;;;;;;;;5011946;28;20052;-57
2021/07/10 07:34:08;;;;;;;6.07;3.63;;;;;;;;;;5014180;28;20046;-55
2021/07/10 07:36:34;;;;;;;9.02;3.28;;;;;;;;;;5012314;28;20052;-57
2021/07/10 07:39:01;;;;;;;9.85;3.72;;;;;;;;;;5012684;28;20041;-57
2021/07/10 07:41:28;;;;;;;9.40;3.95;;;;;;;;;;5011979;28;21108;-57
2021/07/10 07:43:54;;;;;;;6.95;3.40;;;;;;;;;;5012087;28;20046;-57
2021/07/10 07:46:19;;;;;;;6.75;3.20;;;;;;;;;;5010891;28;20048;-57
2021/07/10 07:48:45;;;;;;;5.75;2.90;;;;;;;;;;5013122;28;20064;-56
2021/07/10 07:51:12;;;;;;;6.18;3.20;;;;;;;;;;5011162;28;20033;-56
2021/07/10 07:53:38;;;;;;;8.85;3.70;;;;;;;;;;5015006;28;20099;-56
2021/07/10 07:56:04;;;;;;;5.88;3.30;;;;;;;;;;5013051;28;20126;-54
2021/07/10 07:58:30;;;;;;;7.93;3.92;;;;;;;;;;5011603;28;20084;-56
2021/07/10 08:00:56;;;;;;;6.85;3.53;;;;;;;;;;5012070;28;20037;-57
2021/07/10 08:03:22;;;;;;;7.05;3.90;;;;;;;;;;5012204;28;20041;-53
2021/07/10 08:05:48;;;;;;;9.70;3.60;;;;;;;;;;5011582;28;20047;-56
2021/07/10 08:08:14;;;;;;;8.75;4.15;;;;;;;;;;5015282;28;20061;-56
2021/07/10 08:10:39;;;;;;;8.98;4.10;;;;;;;;;;5012186;28;20525;-56
2021/07/10 08:13:05;;;;;;;10.93;5.05;;;;;;;;;;5012996;28;20045;-56
2021/07/10 08:15:31;;;;;;;7.55;3.88;;;;;;;;;;5011964;28;20042;-54
2021/07/10 08:17:57;;;;;;;9.45;4.32;;;;;;;;;;5010796;28;20068;-54
2021/07/10 08:20:23;;;;;;;7.97;4.40;;;;;;;;;;5006655;28;20042;-56
2021/07/10 08:22:49;;;;;;;11.02;4.07;;;;;;;;;;5012404;28;20037;-54
2021/07/10 08:25:15;;;;;;;6.45;3.85;;;;;;;;;;5011270;28;20045;-56
2021/07/10 08:27:42;;;;;;;10.93;4.32;;;;;;;;;;5011947;28;20433;-57
2021/07/10 08:30:09;;;;;;;8.10;4.45;;;;;;;;;;5012297;28;20045;-57
2021/07/10 08:32:35;;;;;;;11.40;4.32;;;;;;;;;;5010053;28;20044;-56
2021/07/10 08:35:01;;;;;;;8.02;4.30;;;;;;;;;;5012456;28;20120;-56
2021/07/10 08:37:27;;;;;;;8.05;4.13;;;;;;;;;;5011843;28;20414;-56
2021/07/10 08:39:53;;;;;;;8.13;3.83;;;;;;;;;;5009890;28;20030;-56
2021/07/10 08:42:19;;;;;;;8.55;3.88;;;;;;;;;;5011333;28;20059;-53
2021/07/10 08:44:47;;;;;;;12.93;4.50;;;;;;;;;;5011714;28;20048;-56
2021/07/10 08:47:14;;;;;;;9.85;4.78;;;;;;;;;;5011972;28;20046;-56
2021/07/10 08:49:41;;;;;;;8.68;4.18;;;;;;;;;;5011161;28;20052;-57
2021/07/10 08:52:07;;;;;;;8.32;4.43;;;;;;;;;;5013495;28;20116;-56
2021/07/10 08:54:33;;;;;;;8.45;4.43;;;;;;;;;;5011847;28;20041;-57
2021/07/10 08:56:59;;;;;;;7.50;4.60;;;;;;;;;;5012413;28;20391;-57
2021/07/10 08:59:24;;;;;;;9.32;4.32;;;;;;;;;;5011593;28;20076;-56
2021/07/10 09:01:53;;;;;;;8.23;4.35;;;;;;;;;;5013173;28;20057;-55
2021/07/10 09:04:23;;;;;;;10.30;4.20;;;;;;;;;;5011345;28;20041;-56
2021/07/10 09:06:48;;;;;;;8.30;4.63;;;;;;;;;;5010458;28;21180;-57
2021/07/10 09:09:14;;;;;;;10.70;4.68;;;;;;;;;;5009226;28;20074;-59
2021/07/10 09:11:40;;;;;;;9.85;4.40;;;;;;;;;;5009338;28;20636;-56
2021/07/10 09:14:06;;;;;;;8.57;4.28;;;;;;;;;;5008789;28;20042;-56
2021/07/10 09:16:34;;;;;;;8.02;4.63;;;;;;;;;;5011716;28;20693;-56
2021/07/10 09:19:01;;;;;;;7.40;4.38;;;;;;;;;;5010762;28;20045;-55
2021/07/10 09:21:39;;;;;;;9.35;4.65;;;;;;;;;;5011668;28;20039;-56
2021/07/10 09:24:09;;;;;;;10.57;4.65;;;;;;;;;;5011825;28;20046;-56
2021/07/10 09:26:40;;;;;;;8.52;4.57;;;;;;;;;;5011273;28;20075;-57
2021/07/10 09:29:07;;;;;;;9.35;4.65;;;;;;;;;;5010801;28;20890;-56
2021/07/10 09:31:41;;;;;;;9.15;4.60;;;;;;;;;;5011922;28;20921;-56
2021/07/10 09:34:11;;;;;;;9.23;4.47;;;;;;;;;;5011987;28;20079;-57
2021/07/10 09:36:49;;;;;;;9.93;4.35;;;;;;;;;;5010025;28;20087;-56
2021/07/10 09:39:16;;;;;;;9.82;4.03;;;;;;;;;;5009238;28;20057;-54
2021/07/10 09:41:41;;;;;;;8.63;4.53;;;;;;;;;;5009199;28;20537;-55
2021/07/10 09:44:09;;;;;;;7.88;4.00;;;;;;;;;;5010112;28;20048;-55
2021/07/10 09:46:35;;;;;;;9.48;4.50;;;;;;;;;;5011317;28;20045;-56
2021/07/10 09:49:21;;;;;;;7.57;4.22;;;;;;;;;;5011728;28;20098;-56
2021/07/10 09:51:47;;;;;;;8.20;4.50;;;;;;;;;;5011834;28;20086;-54
2021/07/10 09:54:13;;;;;;;9.70;4.40;;;;;;;;;;5012485;28;20069;-55
2021/07/10 09:56:58;;;;;;;8.10;4.07;;;;;;;;;;5009327;28;20087;-57
2021/07/10 09:59:24;;;;;;;7.70;3.97;;;;;;;;;;5009836;28;20387;-55
2021/07/10 10:01:50;;;;;;;8.13;4.10;;;;;;;;;;5011622;28;20525;-56
2021/07/10 10:04:34;;;;;;;8.98;4.30;;;;;;;;;;5009609;28;20081;-54
2021/07/10 10:07:02;;;;;;;9.30;4.15;;;;;;;;;;5014652;28;20033;-56
2021/07/10 10:09:30;;;;;;;9.63;4.32;;;;;;;;;;5013953;28;20577;-55
2021/07/10 10:12:08;;;;;;;8.35;4.20;;;;;;;;;;5014457;28;20072;-56
2021/07/10 10:14:35;;;;;;;5.53;3.53;;;;;;;;;;5014349;28;20498;-56
2021/07/10 10:17:01;;;;;;;10.00;4.50;;;;;;;;;;5014514;28;20048;-54
2021/07/10 10:19:29;;;;;;;6.90;4.18;;;;;;;;;;5026446;28;20046;-56
2021/07/10 10:21:56;;;;;;;8.48;4.47;;;;;;;;;;5016434;28;20100;-57
2021/07/10 10:24:24;;;;;;;9.13;4.43;;;;;;;;;;5015245;28;20045;-56
2021/07/10 10:26:50;;;;;;;15.20;4.60;;;;;;;;;;5013756;28;20461;-57
2021/07/10 10:29:18;;;;;;;7.50;3.90;;;;;;;;;;5013076;28;20050;-56
2021/07/10 10:31:46;;;;;;;7.00;3.83;;;;;;;;;;5014096;28;20068;-56
2021/07/10 10:34:12;;;;;;;7.45;3.95;;;;;;;;;;5016665;28;20041;-56
2021/07/10 10:36:43;;;;;;;7.70;4.18;;;;;;;;;;5014754;28;20042;-56
2021/07/10 10:39:14;;;;;;;9.93;4.35;;;;;;;;;;5014132;28;20521;-56
2021/07/10 10:41:41;;;;;;;9.23;4.68;;;;;;;;;;5014875;28;20049;-60
2021/07/10 10:44:07;;;;;;;7.45;4.15;;;;;;;;;;5013752;28;20038;-55
2021/07/10 10:47:02;;;;;;;7.60;4.03;;;;;;;;;;5013432;28;20142;-57
2021/07/10 10:49:37;;;;;;;6.95;3.80;;;;;;;;;;4992778;28;20068;-57
2021/07/10 10:52:16;;;;;;;8.45;4.25;;;;;;;;;;5013329;28;20037;-56
2021/07/10 10:54:46;;;;;;;13.27;4.53;;;;;;;;;;5014214;28;20042;-56
2021/07/10 10:57:12;;;;;;;8.93;4.18;;;;;;;;;;5014620;28;20038;-56
2021/07/10 10:59:39;;;;;;;9.50;4.90;;;;;;;;;;5014252;28;20045;-56
2021/07/10 11:02:24;;;;;;;8.07;4.65;;;;;;;;;;5014088;28;20077;-56
2021/07/10 11:04:56;;;;;;;8.10;4.25;;;;;;;;;;5014487;28;20041;-56
2021/07/10 11:07:23;;;;;;;8.38;4.38;;;;;;;;;;5013766;28;20136;-56
2021/07/10 11:10:09;;;;;;;8.35;4.22;;;;;;;;;;5013877;28;20060;-57
2021/07/10 11:12:49;;;;;;;10.95;4.88;;;;;;;;;;5020272;28;20034;-57
2021/07/10 11:15:24;;;;;;;11.98;3.90;;;;;;;;;;5016166;28;20053;-56
2021/07/10 11:17:50;;;;;;;8.95;4.60;;;;;;;;;;5013276;28;20052;-56
2021/07/10 11:20:36;;;;;;;9.68;4.30;;;;;;;;;;5017286;28;20117;-57
2021/07/10 11:23:02;;;;;;;10.27;4.95;;;;;;;;;;5017731;28;20512;-56
2021/07/10 11:25:47;;;;;;;8.95;4.72;;;;;;;;;;5012197;28;20045;-57
2021/07/10 11:28:13;;;;;;;10.82;4.53;;;;;;;;;;5014489;28;20046;-57
2021/07/10 11:30:46;;;;;;;10.20;4.22;;;;;;;;;;5012804;28;20040;-57
2021/07/10 11:33:13;;;;;;;11.45;4.97;;;;;;;;;;5012816;28;20048;-56
2021/07/10 11:35:39;;;;;;;10.15;5.00;;;;;;;;;;5013970;28;20073;-56
2021/07/10 11:38:06;;;;;;;9.05;4.68;;;;;;;;;;5015775;28;20048;-55
2021/07/10 11:40:41;;;;;;;12.00;4.75;;;;;;;;;;5014024;28;20054;-56
2021/07/10 11:43:08;;;;;;;9.25;4.65;;;;;;;;;;5014517;28;20190;-56
2021/07/10 11:45:34;;;;;;;9.23;4.80;;;;;;;;;;5016974;28;20133;-56
2021/07/10 11:48:16;;;;;;;11.98;5.15;;;;;;;;;;5014762;28;20107;-56
2021/07/10 11:50:42;;;;;;;8.65;4.95;;;;;;;;;;5013225;28;20038;-57
2021/07/10 11:53:09;;;;;;;10.25;5.13;;;;;;;;;;5014768;28;20104;-56
2021/07/10 11:55:37;;;;;;;12.18;5.28;;;;;;;;;;5015640;28;20170;-54
2021/07/10 11:58:07;;;;;;;10.13;5.13;;;;;;;;;;5011857;28;20052;-56
2021/07/10 12:00:33;;;;;;;17.63;5.82;;;;;;;;;;5014117;28;20030;-56
2021/07/10 12:02:59;;;;;;;13.35;5.72;;;;;;;;;;5008059;28;20038;-56
2021/07/10 12:05:25;;;;;;;15.07;5.57;;;;;;;;;;5011359;28;20040;-56
2021/07/10 12:07:52;;;;;;;10.65;5.13;;;;;;;;;;5010656;28;20045;-56
2021/07/10 12:10:29;;;;;;;9.98;5.00;;;;;;;;;;5013338;28;20643;-56
2021/07/10 12:12:56;;;;;;;12.30;5.82;;;;;;;;;;5013760;28;20678;-56
2021/07/10 12:15:24;;;;;;;12.63;5.43;;;;;;;;;;5011368;28;20033;-56
2021/07/10 12:17:53;;;;;;;12.95;5.78;;;;;;;;;;5025933;28;20034;-57
2021/07/10 12:20:20;;;;;;;12.15;5.60;;;;;;;;;;5013881;28;20118;-57
2021/07/10 12:22:56;;;;;;;13.98;5.70;;;;;;;;;;5013831;28;20523;-56
2021/07/10 12:25:23;;;;;;;11.45;5.57;;;;;;;;;;5011069;28;20052;-56
2021/07/10 12:27:53;;;;;;;10.63;4.72;;;;;;;;;;5011606;28;20517;-55
2021/07/10 12:30:33;;;;;;;7.55;4.28;;;;;;;;;;5010305;28;20041;-54
2021/07/10 12:32:59;;;;;;;8.43;3.85;;;;;;;;;;5013511;28;20040;-55
2021/07/10 12:35:25;;;;;;;6.53;3.80;;;;;;;;;;5010513;28;20062;-56
2021/07/10 12:37:51;;;;;;;10.57;4.20;;;;;;;;;;5014845;28;20624;-55
2021/07/10 12:40:16;;;;;;;8.68;4.22;;;;;;;;;;5014315;28;20169;-56
2021/07/10 12:42:42;;;;;;;12.65;4.65;;;;;;;;;;5015533;28;20045;-56
2021/07/10 12:45:09;;;;;;;8.63;4.40;;;;;;;;;;5015395;28;20559;-56
2021/07/10 12:47:35;;;;;;;7.25;4.20;;;;;;;;;;5012818;28;20046;-56
2021/07/10 12:50:03;;;;;;;9.13;4.75;;;;;;;;;;5016107;28;20460;-56
2021/07/10 12:52:45;;;;;;;8.07;4.53;;;;;;;;;;5016265;28;20064;-56
2021/07/10 12:55:12;;;;;;;8.02;4.43;;;;;;;;;;5012055;28;20713;-57
2021/07/10 12:57:41;;;;;;;9.07;4.70;;;;;;;;;;5014360;28;20075;-56
2021/07/10 13:00:07;;;;;;;8.85;4.07;;;;;;;;;;5013740;28;20111;-57
2021/07/10 13:02:53;;;;;;;12.27;4.30;;;;;;;;;;5014979;28;20061;-57
2021/07/10 13:05:24;;;;;;;8.30;4.50;;;;;;;;;;5012893;28;20026;-58
2021/07/10 13:07:52;;;;;;;8.98;4.18;;;;;;;;;;5013322;28;20063;-58
2021/07/10 13:10:22;;;;;;;7.03;4.07;;;;;;;;;;5016811;28;20100;-56
2021/07/10 13:12:50;;;;;;;9.02;4.47;;;;;;;;;;5011570;28;20121;-58
2021/07/10 13:15:18;;;;;;;10.88;4.32;;;;;;;;;;5028623;28;20074;-58
2021/07/10 13:18:02;;;;;;;6.95;3.92;;;;;;;;;;5016139;28;20447;-59
2021/07/10 13:20:32;;;;;;;8.35;4.43;;;;;;;;;;5014982;28;20029;-58
2021/07/10 13:22:58;;;;;;;6.80;3.50;;;;;;;;;;5014411;28;20494;-58
2021/07/10 13:25:31;;;;;;;7.72;4.10;;;;;;;;;;5012949;28;20077;-57
2021/07/10 13:27:57;;;;;;;9.95;4.90;;;;;;;;;;5011805;28;20439;-58
2021/07/10 13:30:23;;;;;;;8.57;4.55;;;;;;;;;;5012613;28;20099;-59
2021/07/10 13:32:52;;;;;;;10.27;5.07;;;;;;;;;;5012299;28;20144;-58
2021/07/10 13:35:22;;;;;;;8.05;4.13;;;;;;;;;;5011628;28;20049;-57
2021/07/10 13:37:48;;;;;;;7.53;4.18;;;;;;;;;;5015651;28;20030;-57
2021/07/10 13:40:21;;;;;;;8.13;4.22;;;;;;;;;;5036368;28;20418;-57
2021/07/10 13:42:56;;;;;;;10.45;4.85;;;;;;;;;;5018121;28;20402;-57
2021/07/10 13:45:22;;;;;;;8.48;4.53;;;;;;;;;;5019902;28;20045;-57
2021/07/10 13:47:48;;;;;;;8.63;4.57;;;;;;;;;;5018811;28;20045;-58
2021/07/10 13:50:14;;;;;;;8.25;4.43;;;;;;;;;;5022426;28;20045;-56
2021/07/10 13:52:44;;;;;;;12.43;5.15;;;;;;;;;;5021662;28;20034;-57
2021/07/10 13:55:11;;;;;;;9.57;4.70;;;;;;;;;;5023152;28;20037;-57
2021/07/10 13:57:40;;;;;;;8.63;5.00;;;;;;;;;;5021205;28;20113;-58
2021/07/10 14:00:16;;;;;;;8.90;4.70;;;;;;;;;;5022172;28;20037;-58
2021/07/10 14:02:49;;;;;;;9.18;4.60;;;;;;;;;;5015530;28;20049;-58
2021/07/10 14:05:15;;;;;;;11.88;5.28;;;;;;;;;;5017660;28;20378;-58
2021/07/10 14:07:42;;;;;;;7.88;4.55;;;;;;;;;;5015506;28;20046;-57
2021/07/10 14:10:10;;;;;;;9.15;4.85;;;;;;;;;;5017470;28;20134;-57
2021/07/10 14:12:36;;;;;;;12.32;4.70;;;;;;;;;;5016362;28;20049;-57
2021/07/10 14:15:02;;;;;;;10.48;4.47;;;;;;;;;;5018785;28;20041;-56
2021/07/10 14:17:28;;;;;;;8.52;4.43;;;;;;;;;;5017394;28;20488;-56
2021/07/10 14:19:54;;;;;;;8.70;4.40;;;;;;;;;;5016705;28;20052;-57
2021/07/10 14:22:20;;;;;;;11.75;4.65;;;;;;;;;;5016950;28;20060;-56
2021/07/10 14:24:46;;;;;;;8.65;4.72;;;;;;;;;;5017208;28;20402;-57
2021/07/10 14:27:12;;;;;;;7.35;4.03;;;;;;;;;;5018108;28;20042;-57
2021/07/10 14:29:38;;;;;;;10.35;4.50;;;;;;;;;;5018222;28;20053;-56
2021/07/10 14:32:04;;;;;;;8.18;4.30;;;;;;;;;;5017680;28;20135;-55
2021/07/10 14:34:29;;;;;;;9.00;4.75;;;;;;;;;;5017986;28;20124;-57
2021/07/10 14:36:55;;;;;;;8.95;4.57;;;;;;;;;;5016949;28;20045;-56
2021/07/10 14:39:21;;;;;;;7.32;3.50;;;;;;;;;;5015077;28;20033;-56
2021/07/10 14:41:47;;;;;;;7.82;4.35;;;;;;;;;;5017672;28;20045;-56